sensor_id;sensor_type;location;lat;lon;timestamp;P1;durP1;ratioP1;P2;durP2;ratioP2
17943;SDS011;9097;47.028;15.444;2022-11-28T00:01:43;8.07;;;4.97;;
17943;SDS011;9097;47.028;15.444;2022-11-28T00:04:49;6.97;;;4.60;;
17943;SDS011;9097;47.028;15.444;2022-11-28T00:07:52;12.93;;;5.20;;
17943;SDS011;9097;47.028;15.444;2022-11-28T00:10:56;11.30;;;4.73;;
17943;SDS011;9097;47.028;15.444;2022-11-28T00:13:59;7.60;;;4.13;;
17943;SDS011;9097;47.028;15.444;2022-11-28T00:17:03;9.17;;;5.50;;
17943;SDS011;9097;47.028;15.444;2022-11-28T00:20:06;9.43;;;4.70;;
17943;SDS011;9097;47.028;15.444;2022-11-28T00:23:09;9.13;;;5.20;;
17943;SDS011;9097;47.028;15.444;2022-11-28T00:26:13;7.17;;;4.53;;
17943;SDS011;9097;47.028;15.444;2022-11-28T00:29:16;11.37;;;5.03;;
17943;SDS011;9097;47.028;15.444;2022-11-28T00:32:20;9.13;;;4.00;;
17943;SDS011;9097;47.028;15.444;2022-11-28T00:35:23;6.40;;;4.80;;
17943;SDS011;9097;47.028;15.444;2022-11-28T00:38:25;5.20;;;3.97;;
17943;SDS011;9097;47.028;15.444;2022-11-28T00:41:28;5.77;;;3.83;;
17943;SDS011;9097;47.028;15.444;2022-11-28T00:44:33;9.27;;;4.13;;
17943;SDS011;9097;47.028;15.444;2022-11-28T00:47:37;5.60;;;2.63;;
17943;SDS011;9097;47.028;15.444;2022-11-28T00:50:40;5.20;;;4.17;;
17943;SDS011;9097;47.028;15.444;2022-11-28T00:53:43;6.93;;;3.77;;
17943;SDS011;9097;47.028;15.444;2022-11-28T00:56:48;16.77;;;4.43;;
17943;SDS011;9097;47.028;15.444;2022-11-28T00:59:51;3.60;;;2.60;;
17943;SDS011;9097;47.028;15.444;2022-11-28T01:02:55;5.67;;;3.17;;
17943;SDS011;9097;47.028;15.444;2022-11-28T01:05:58;6.07;;;3.37;;
17943;SDS011;9097;47.028;15.444;2022-11-28T01:09:02;8.20;;;3.47;;
17943;SDS011;9097;47.028;15.444;2022-11-28T01:12:05;9.53;;;5.67;;
17943;SDS011;9097;47.028;15.444;2022-11-28T01:15:10;7.20;;;3.40;;
17943;SDS011;9097;47.028;15.444;2022-11-28T01:18:14;7.93;;;4.30;;
17943;SDS011;9097;47.028;15.444;2022-11-28T01:21:17;4.77;;;2.90;;
17943;SDS011;9097;47.028;15.444;2022-11-28T01:24:19;5.50;;;3.27;;
17943;SDS011;9097;47.028;15.444;2022-11-28T01:27:22;11.33;;;3.43;;
17943;SDS011;9097;47.028;15.444;2022-11-28T01:30:25;2.93;;;2.47;;
17943;SDS011;9097;47.028;15.444;2022-11-28T01:33:29;6.90;;;3.50;;
17943;SDS011;9097;47.028;15.444;2022-11-28T01:36:31;3.13;;;1.83;;
17943;SDS011;9097;47.028;15.444;2022-11-28T01:39:34;5.17;;;2.97;;
17943;SDS011;9097;47.028;15.444;2022-11-28T01:42:38;9.50;;;4.20;;
17943;SDS011;9097;47.028;15.444;2022-11-28T01:45:41;3.03;;;2.30;;
17943;SDS011;9097;47.028;15.444;2022-11-28T01:48:45;6.77;;;3.07;;
17943;SDS011;9097;47.028;15.444;2022-11-28T01:51:48;6.17;;;4.00;;
17943;SDS011;9097;47.028;15.444;2022-11-28T01:54:57;8.43;;;3.73;;
17943;SDS011;9097;47.028;15.444;2022-11-28T01:58:00;6.73;;;2.90;;
17943;SDS011;9097;47.028;15.444;2022-11-28T02:01:05;5.50;;;3.50;;
17943;SDS011;9097;47.028;15.444;2022-11-28T02:04:10;4.00;;;3.30;;
17943;SDS011;9097;47.028;15.444;2022-11-28T02:07:14;6.60;;;3.30;;
17943;SDS011;9097;47.028;15.444;2022-11-28T02:10:21;4.57;;;3.30;;
17943;SDS011;9097;47.028;15.444;2022-11-28T02:13:30;6.67;;;4.37;;
17943;SDS011;9097;47.028;15.444;2022-11-28T02:16:44;7.03;;;3.10;;
17943;SDS011;9097;47.028;15.444;2022-11-28T02:23:35;2.13;;;2.03;;
17943;SDS011;9097;47.028;15.444;2022-11-28T02:26:57;4.37;;;2.83;;
17943;SDS011;9097;47.028;15.444;2022-11-28T02:30:10;7.83;;;3.50;;
17943;SDS011;9097;47.028;15.444;2022-11-28T02:33:18;3.10;;;2.73;;
17943;SDS011;9097;47.028;15.444;2022-11-28T02:36:25;6.80;;;5.40;;
17943;SDS011;9097;47.028;15.444;2022-11-28T02:39:34;6.27;;;4.03;;
17943;SDS011;9097;47.028;15.444;2022-11-28T02:42:46;6.30;;;3.83;;
17943;SDS011;9097;47.028;15.444;2022-11-28T02:46:02;7.10;;;5.07;;
17943;SDS011;9097;47.028;15.444;2022-11-28T02:49:12;7.27;;;3.20;;
17943;SDS011;9097;47.028;15.444;2022-11-28T02:52:25;5.53;;;2.03;;
17943;SDS011;9097;47.028;15.444;2022-11-28T02:55:35;4.87;;;4.13;;
17943;SDS011;9097;47.028;15.444;2022-11-28T02:58:40;3.77;;;3.33;;
17943;SDS011;9097;47.028;15.444;2022-11-28T03:01:42;10.63;;;3.40;;
17943;SDS011;9097;47.028;15.444;2022-11-28T03:04:52;10.23;;;2.67;;
17943;SDS011;9097;47.028;15.444;2022-11-28T03:08:03;6.03;;;2.40;;
17943;SDS011;9097;47.028;15.444;2022-11-28T03:11:17;2.40;;;2.20;;
17943;SDS011;9097;47.028;15.444;2022-11-28T03:14:27;2.43;;;1.70;;
17943;SDS011;9097;47.028;15.444;2022-11-28T03:17:38;3.80;;;2.60;;
17943;SDS011;9097;47.028;15.444;2022-11-28T03:20:55;4.97;;;3.30;;
17943;SDS011;9097;47.028;15.444;2022-11-28T03:24:01;6.40;;;4.17;;
17943;SDS011;9097;47.028;15.444;2022-11-28T03:27:12;4.00;;;3.20;;
17943;SDS011;9097;47.028;15.444;2022-11-28T03:30:20;7.67;;;3.40;;
17943;SDS011;9097;47.028;15.444;2022-11-28T03:33:30;15.33;;;4.17;;
17943;SDS011;9097;47.028;15.444;2022-11-28T03:36:40;2.10;;;1.97;;
17943;SDS011;9097;47.028;15.444;2022-11-28T03:39:47;8.23;;;1.60;;
17943;SDS011;9097;47.028;15.444;2022-11-28T03:42:56;6.60;;;3.60;;
17943;SDS011;9097;47.028;15.444;2022-11-28T03:46:03;5.17;;;3.87;;
17943;SDS011;9097;47.028;15.444;2022-11-28T03:49:08;10.30;;;3.50;;
17943;SDS011;9097;47.028;15.444;2022-11-28T03:52:17;5.67;;;3.23;;
17943;SDS011;9097;47.028;15.444;2022-11-28T03:55:26;7.40;;;4.47;;
17943;SDS011;9097;47.028;15.444;2022-11-28T03:58:36;5.23;;;3.93;;
17943;SDS011;9097;47.028;15.444;2022-11-28T04:01:43;6.17;;;3.47;;
17943;SDS011;9097;47.028;15.444;2022-11-28T04:04:54;6.97;;;3.77;;
17943;SDS011;9097;47.028;15.444;2022-11-28T04:08:04;4.57;;;2.70;;
17943;SDS011;9097;47.028;15.444;2022-11-28T04:11:13;3.80;;;2.07;;
17943;SDS011;9097;47.028;15.444;2022-11-28T04:14:21;3.83;;;2.40;;
17943;SDS011;9097;47.028;15.444;2022-11-28T04:17:29;19.00;;;3.77;;
17943;SDS011;9097;47.028;15.444;2022-11-28T04:20:37;7.27;;;4.00;;
17943;SDS011;9097;47.028;15.444;2022-11-28T04:23:44;4.83;;;4.33;;
17943;SDS011;9097;47.028;15.444;2022-11-28T04:26:50;3.17;;;2.23;;
17943;SDS011;9097;47.028;15.444;2022-11-28T04:29:57;4.10;;;2.33;;
17943;SDS011;9097;47.028;15.444;2022-11-28T04:33:02;3.60;;;3.27;;
17943;SDS011;9097;47.028;15.444;2022-11-28T04:36:08;2.73;;;2.43;;
17943;SDS011;9097;47.028;15.444;2022-11-28T04:39:16;3.47;;;2.13;;
17943;SDS011;9097;47.028;15.444;2022-11-28T04:42:21;5.40;;;3.53;;
17943;SDS011;9097;47.028;15.444;2022-11-28T04:45:27;2.53;;;2.13;;
17943;SDS011;9097;47.028;15.444;2022-11-28T04:48:34;2.97;;;2.00;;
17943;SDS011;9097;47.028;15.444;2022-11-28T04:51:38;11.67;;;2.57;;
17943;SDS011;9097;47.028;15.444;2022-11-28T04:54:50;4.10;;;2.67;;
17943;SDS011;9097;47.028;15.444;2022-11-28T04:57:55;2.10;;;2.00;;
17943;SDS011;9097;47.028;15.444;2022-11-28T05:01:00;5.17;;;2.53;;
17943;SDS011;9097;47.028;15.444;2022-11-28T05:04:06;9.10;;;3.20;;
17943;SDS011;9097;47.028;15.444;2022-11-28T05:07:08;7.10;;;3.03;;
17943;SDS011;9097;47.028;15.444;2022-11-28T05:10:13;2.77;;;2.47;;
17943;SDS011;9097;47.028;15.444;2022-11-28T05:13:16;4.07;;;1.80;;
17943;SDS011;9097;47.028;15.444;2022-11-28T05:16:19;10.50;;;3.37;;
17943;SDS011;9097;47.028;15.444;2022-11-28T05:19:22;7.53;;;3.60;;
17943;SDS011;9097;47.028;15.444;2022-11-28T05:22:24;4.63;;;2.77;;
17943;SDS011;9097;47.028;15.444;2022-11-28T05:25:28;6.50;;;3.53;;
17943;SDS011;9097;47.028;15.444;2022-11-28T05:28:30;8.70;;;3.63;;
17943;SDS011;9097;47.028;15.444;2022-11-28T05:31:33;5.50;;;2.50;;
17943;SDS011;9097;47.028;15.444;2022-11-28T05:34:35;2.00;;;1.60;;
17943;SDS011;9097;47.028;15.444;2022-11-28T05:37:38;2.30;;;2.07;;
17943;SDS011;9097;47.028;15.444;2022-11-28T05:40:42;4.27;;;1.53;;
17943;SDS011;9097;47.028;15.444;2022-11-28T05:43:44;1.20;;;1.10;;
17943;SDS011;9097;47.028;15.444;2022-11-28T05:46:47;4.60;;;2.60;;
17943;SDS011;9097;47.028;15.444;2022-11-28T05:49:50;2.90;;;1.97;;
17943;SDS011;9097;47.028;15.444;2022-11-28T05:52:52;3.37;;;1.63;;
17943;SDS011;9097;47.028;15.444;2022-11-28T05:55:56;2.77;;;2.57;;
17943;SDS011;9097;47.028;15.444;2022-11-28T05:58:58;3.97;;;1.73;;
17943;SDS011;9097;47.028;15.444;2022-11-28T06:02:01;8.77;;;1.33;;
17943;SDS011;9097;47.028;15.444;2022-11-28T06:05:03;6.57;;;0.90;;
17943;SDS011;9097;47.028;15.444;2022-11-28T06:08:06;2.67;;;1.63;;
17943;SDS011;9097;47.028;15.444;2022-11-28T06:11:10;3.23;;;2.07;;
17943;SDS011;9097;47.028;15.444;2022-11-28T06:14:14;3.90;;;3.27;;
17943;SDS011;9097;47.028;15.444;2022-11-28T06:17:16;3.13;;;2.17;;
17943;SDS011;9097;47.028;15.444;2022-11-28T06:20:18;3.27;;;2.27;;
17943;SDS011;9097;47.028;15.444;2022-11-28T06:23:20;4.10;;;2.03;;
17943;SDS011;9097;47.028;15.444;2022-11-28T06:26:25;3.13;;;2.40;;
17943;SDS011;9097;47.028;15.444;2022-11-28T06:29:28;2.23;;;1.70;;
17943;SDS011;9097;47.028;15.444;2022-11-28T06:32:31;5.80;;;1.50;;
17943;SDS011;9097;47.028;15.444;2022-11-28T06:35:33;5.27;;;1.73;;
17943;SDS011;9097;47.028;15.444;2022-11-28T06:38:36;5.83;;;1.97;;
17943;SDS011;9097;47.028;15.444;2022-11-28T06:41:40;6.37;;;2.03;;
17943;SDS011;9097;47.028;15.444;2022-11-28T06:44:42;3.23;;;2.17;;
17943;SDS011;9097;47.028;15.444;2022-11-28T06:47:44;9.13;;;2.00;;
17943;SDS011;9097;47.028;15.444;2022-11-28T06:50:47;1.17;;;0.97;;
17943;SDS011;9097;47.028;15.444;2022-11-28T06:53:50;4.80;;;2.37;;
17943;SDS011;9097;47.028;15.444;2022-11-28T06:56:54;5.73;;;2.70;;
17943;SDS011;9097;47.028;15.444;2022-11-28T06:59:56;5.93;;;2.90;;
17943;SDS011;9097;47.028;15.444;2022-11-28T07:02:58;3.43;;;2.13;;
17943;SDS011;9097;47.028;15.444;2022-11-28T07:06:01;5.43;;;3.30;;
17943;SDS011;9097;47.028;15.444;2022-11-28T07:09:04;5.53;;;2.73;;
17943;SDS011;9097;47.028;15.444;2022-11-28T07:12:08;6.97;;;4.60;;
17943;SDS011;9097;47.028;15.444;2022-11-28T07:15:11;9.00;;;6.00;;
17943;SDS011;9097;47.028;15.444;2022-11-28T07:18:13;6.70;;;3.57;;
17943;SDS011;9097;47.028;15.444;2022-11-28T07:21:16;5.47;;;2.43;;
17943;SDS011;9097;47.028;15.444;2022-11-28T07:24:19;10.57;;;3.73;;
17943;SDS011;9097;47.028;15.444;2022-11-28T07:27:23;4.37;;;3.07;;
17943;SDS011;9097;47.028;15.444;2022-11-28T07:30:26;5.67;;;2.37;;
17943;SDS011;9097;47.028;15.444;2022-11-28T07:33:28;4.70;;;2.50;;
17943;SDS011;9097;47.028;15.444;2022-11-28T07:36:31;5.30;;;3.23;;
17943;SDS011;9097;47.028;15.444;2022-11-28T07:39:33;12.37;;;3.43;;
17943;SDS011;9097;47.028;15.444;2022-11-28T07:42:37;7.87;;;2.13;;
17943;SDS011;9097;47.028;15.444;2022-11-28T07:45:39;5.93;;;1.90;;
17943;SDS011;9097;47.028;15.444;2022-11-28T07:48:42;5.70;;;2.33;;
17943;SDS011;9097;47.028;15.444;2022-11-28T07:51:44;18.33;;;2.67;;
17943;SDS011;9097;47.028;15.444;2022-11-28T07:54:47;3.63;;;1.93;;
17943;SDS011;9097;47.028;15.444;2022-11-28T07:57:51;7.33;;;2.97;;
17943;SDS011;9097;47.028;15.444;2022-11-28T08:00:53;13.43;;;5.37;;
17943;SDS011;9097;47.028;15.444;2022-11-28T08:03:56;4.13;;;2.83;;
17943;SDS011;9097;47.028;15.444;2022-11-28T08:06:58;8.57;;;4.20;;
17943;SDS011;9097;47.028;15.444;2022-11-28T08:10:01;5.63;;;3.47;;
17943;SDS011;9097;47.028;15.444;2022-11-28T08:13:05;6.57;;;2.77;;
17943;SDS011;9097;47.028;15.444;2022-11-28T08:16:08;6.23;;;3.17;;
17943;SDS011;9097;47.028;15.444;2022-11-28T08:19:13;9.73;;;4.10;;
17943;SDS011;9097;47.028;15.444;2022-11-28T08:22:16;5.30;;;3.07;;
17943;SDS011;9097;47.028;15.444;2022-11-28T08:25:18;4.53;;;3.43;;
17943;SDS011;9097;47.028;15.444;2022-11-28T08:28:22;6.30;;;2.83;;
17943;SDS011;9097;47.028;15.444;2022-11-28T08:31:26;10.23;;;3.27;;
17943;SDS011;9097;47.028;15.444;2022-11-28T08:34:29;7.87;;;3.73;;
17943;SDS011;9097;47.028;15.444;2022-11-28T08:37:33;7.33;;;3.17;;
17943;SDS011;9097;47.028;15.444;2022-11-28T08:40:35;4.80;;;2.43;;
17943;SDS011;9097;47.028;15.444;2022-11-28T08:43:39;8.10;;;3.97;;
17943;SDS011;9097;47.028;15.444;2022-11-28T08:46:41;8.90;;;3.50;;
17943;SDS011;9097;47.028;15.444;2022-11-28T08:49:45;6.27;;;4.47;;
17943;SDS011;9097;47.028;15.444;2022-11-28T08:52:47;6.70;;;4.27;;
17943;SDS011;9097;47.028;15.444;2022-11-28T08:55:51;9.10;;;4.27;;
17943;SDS011;9097;47.028;15.444;2022-11-28T08:58:54;4.13;;;3.40;;
17943;SDS011;9097;47.028;15.444;2022-11-28T09:01:57;4.73;;;3.43;;
17943;SDS011;9097;47.028;15.444;2022-11-28T09:04:59;8.53;;;3.73;;
17943;SDS011;9097;47.028;15.444;2022-11-28T09:08:01;5.90;;;3.30;;
17943;SDS011;9097;47.028;15.444;2022-11-28T09:11:05;3.60;;;2.70;;
17943;SDS011;9097;47.028;15.444;2022-11-28T09:14:10;9.97;;;4.93;;
17943;SDS011;9097;47.028;15.444;2022-11-28T09:17:14;4.43;;;3.07;;
17943;SDS011;9097;47.028;15.444;2022-11-28T09:20:16;8.33;;;3.67;;
17943;SDS011;9097;47.028;15.444;2022-11-28T09:23:19;8.77;;;3.70;;
17943;SDS011;9097;47.028;15.444;2022-11-28T09:26:22;9.00;;;4.57;;
17943;SDS011;9097;47.028;15.444;2022-11-28T09:29:27;7.23;;;3.23;;
17943;SDS011;9097;47.028;15.444;2022-11-28T09:32:30;7.23;;;3.67;;
17943;SDS011;9097;47.028;15.444;2022-11-28T09:35:36;9.83;;;5.37;;
17943;SDS011;9097;47.028;15.444;2022-11-28T09:38:38;12.43;;;3.97;;
17943;SDS011;9097;47.028;15.444;2022-11-28T09:45:11;13.70;;;4.30;;
17943;SDS011;9097;47.028;15.444;2022-11-28T09:48:21;10.10;;;4.00;;
17943;SDS011;9097;47.028;15.444;2022-11-28T09:51:27;8.40;;;5.33;;
17943;SDS011;9097;47.028;15.444;2022-11-28T09:54:37;11.03;;;4.07;;
17943;SDS011;9097;47.028;15.444;2022-11-28T09:57:45;5.57;;;3.03;;
17943;SDS011;9097;47.028;15.444;2022-11-28T10:00:51;8.97;;;3.90;;
17943;SDS011;9097;47.028;15.444;2022-11-28T10:04:03;9.13;;;4.67;;
17943;SDS011;9097;47.028;15.444;2022-11-28T10:07:10;9.17;;;4.60;;
17943;SDS011;9097;47.028;15.444;2022-11-28T10:10:21;3.97;;;2.83;;
17943;SDS011;9097;47.028;15.444;2022-11-28T10:13:33;7.27;;;4.77;;
17943;SDS011;9097;47.028;15.444;2022-11-28T10:16:46;6.83;;;3.60;;
17943;SDS011;9097;47.028;15.444;2022-11-28T10:19:57;9.40;;;4.17;;
17943;SDS011;9097;47.028;15.444;2022-11-28T10:23:05;10.57;;;4.73;;
17943;SDS011;9097;47.028;15.444;2022-11-28T10:26:15;5.77;;;3.40;;
17943;SDS011;9097;47.028;15.444;2022-11-28T10:29:23;7.40;;;3.07;;
17943;SDS011;9097;47.028;15.444;2022-11-28T10:32:31;16.07;;;6.17;;
17943;SDS011;9097;47.028;15.444;2022-11-28T10:35:38;7.90;;;3.40;;
17943;SDS011;9097;47.028;15.444;2022-11-28T10:38:46;6.63;;;4.93;;
17943;SDS011;9097;47.028;15.444;2022-11-28T10:41:52;7.57;;;3.97;;
17943;SDS011;9097;47.028;15.444;2022-11-28T10:45:16;7.33;;;4.67;;
17943;SDS011;9097;47.028;15.444;2022-11-28T10:48:31;7.63;;;3.93;;
17943;SDS011;9097;47.028;15.444;2022-11-28T10:51:42;4.77;;;3.47;;
17943;SDS011;9097;47.028;15.444;2022-11-28T10:58:22;6.07;;;4.00;;
17943;SDS011;9097;47.028;15.444;2022-11-28T11:01:28;5.60;;;3.33;;
17943;SDS011;9097;47.028;15.444;2022-11-28T11:04:38;12.17;;;5.23;;
17943;SDS011;9097;47.028;15.444;2022-11-28T11:07:42;6.50;;;4.60;;
17943;SDS011;9097;47.028;15.444;2022-11-28T11:10:50;16.80;;;5.10;;
17943;SDS011;9097;47.028;15.444;2022-11-28T11:13:57;14.23;;;5.77;;
17943;SDS011;9097;47.028;15.444;2022-11-28T11:17:02;7.10;;;4.07;;
17943;SDS011;9097;47.028;15.444;2022-11-28T11:23:31;5.17;;;2.80;;
17943;SDS011;9097;47.028;15.444;2022-11-28T11:26:35;7.70;;;3.93;;
17943;SDS011;9097;47.028;15.444;2022-11-28T11:29:40;9.40;;;4.13;;
17943;SDS011;9097;47.028;15.444;2022-11-28T11:32:44;8.83;;;4.67;;
17943;SDS011;9097;47.028;15.444;2022-11-28T11:35:50;5.80;;;3.00;;
17943;SDS011;9097;47.028;15.444;2022-11-28T11:39:03;8.87;;;4.63;;
17943;SDS011;9097;47.028;15.444;2022-11-28T11:42:20;7.70;;;3.63;;
17943;SDS011;9097;47.028;15.444;2022-11-28T11:45:28;9.33;;;4.63;;
17943;SDS011;9097;47.028;15.444;2022-11-28T11:48:38;6.70;;;3.87;;
17943;SDS011;9097;47.028;15.444;2022-11-28T11:51:42;13.07;;;4.13;;
17943;SDS011;9097;47.028;15.444;2022-11-28T11:54:55;9.87;;;5.50;;
17943;SDS011;9097;47.028;15.444;2022-11-28T11:58:01;5.13;;;3.57;;
17943;SDS011;9097;47.028;15.444;2022-11-28T12:01:06;7.50;;;3.60;;
17943;SDS011;9097;47.028;15.444;2022-11-28T12:04:12;5.87;;;2.83;;
17943;SDS011;9097;47.028;15.444;2022-11-28T12:07:22;14.67;;;3.90;;
17943;SDS011;9097;47.028;15.444;2022-11-28T12:10:29;12.27;;;4.83;;
17943;SDS011;9097;47.028;15.444;2022-11-28T12:13:36;7.30;;;3.27;;
17943;SDS011;9097;47.028;15.444;2022-11-28T12:16:41;4.77;;;3.03;;
17943;SDS011;9097;47.028;15.444;2022-11-28T12:19:53;6.63;;;3.50;;
17943;SDS011;9097;47.028;15.444;2022-11-28T12:23:09;7.87;;;4.00;;
17943;SDS011;9097;47.028;15.444;2022-11-28T12:26:24;5.00;;;2.90;;
17943;SDS011;9097;47.028;15.444;2022-11-28T12:29:34;5.43;;;3.63;;
17943;SDS011;9097;47.028;15.444;2022-11-28T12:32:48;9.53;;;4.50;;
17943;SDS011;9097;47.028;15.444;2022-11-28T12:36:03;6.57;;;4.30;;
17943;SDS011;9097;47.028;15.444;2022-11-28T12:39:20;10.10;;;3.57;;
17943;SDS011;9097;47.028;15.444;2022-11-28T12:42:41;7.10;;;2.60;;
17943;SDS011;9097;47.028;15.444;2022-11-28T12:45:53;4.13;;;3.03;;
17943;SDS011;9097;47.028;15.444;2022-11-28T12:49:11;4.40;;;3.27;;
17943;SDS011;9097;47.028;15.444;2022-11-28T12:52:20;6.20;;;3.50;;
17943;SDS011;9097;47.028;15.444;2022-11-28T12:55:33;4.17;;;3.03;;
17943;SDS011;9097;47.028;15.444;2022-11-28T12:58:45;13.83;;;4.23;;
17943;SDS011;9097;47.028;15.444;2022-11-28T13:01:58;4.83;;;3.70;;
17943;SDS011;9097;47.028;15.444;2022-11-28T13:05:19;9.03;;;4.13;;
17943;SDS011;9097;47.028;15.444;2022-11-28T13:08:31;8.10;;;4.50;;
17943;SDS011;9097;47.028;15.444;2022-11-28T13:11:50;7.73;;;4.33;;
17943;SDS011;9097;47.028;15.444;2022-11-28T13:14:59;12.57;;;4.40;;
17943;SDS011;9097;47.028;15.444;2022-11-28T13:18:12;12.70;;;4.93;;
17943;SDS011;9097;47.028;15.444;2022-11-28T13:21:26;7.07;;;4.03;;
17943;SDS011;9097;47.028;15.444;2022-11-28T13:24:40;11.13;;;4.07;;
17943;SDS011;9097;47.028;15.444;2022-11-28T13:27:57;7.63;;;3.80;;
17943;SDS011;9097;47.028;15.444;2022-11-28T13:31:10;5.93;;;4.13;;
17943;SDS011;9097;47.028;15.444;2022-11-28T13:34:18;11.57;;;4.47;;
17943;SDS011;9097;47.028;15.444;2022-11-28T13:37:22;7.67;;;4.20;;
17943;SDS011;9097;47.028;15.444;2022-11-28T13:40:30;14.27;;;5.70;;
17943;SDS011;9097;47.028;15.444;2022-11-28T13:43:42;9.67;;;4.07;;
17943;SDS011;9097;47.028;15.444;2022-11-28T13:46:52;8.40;;;4.40;;
17943;SDS011;9097;47.028;15.444;2022-11-28T13:53:34;7.33;;;3.37;;
17943;SDS011;9097;47.028;15.444;2022-11-28T13:56:37;6.57;;;4.73;;
17943;SDS011;9097;47.028;15.444;2022-11-28T13:59:41;12.13;;;5.13;;
17943;SDS011;9097;47.028;15.444;2022-11-28T14:02:50;9.47;;;3.43;;
17943;SDS011;9097;47.028;15.444;2022-11-28T14:05:55;12.47;;;4.33;;
17943;SDS011;9097;47.028;15.444;2022-11-28T14:09:02;11.70;;;4.80;;
17943;SDS011;9097;47.028;15.444;2022-11-28T14:12:10;16.77;;;5.47;;
17943;SDS011;9097;47.028;15.444;2022-11-28T14:15:23;11.80;;;5.03;;
17943;SDS011;9097;47.028;15.444;2022-11-28T14:18:33;10.13;;;5.27;;
17943;SDS011;9097;47.028;15.444;2022-11-28T14:21:48;14.30;;;5.63;;
17943;SDS011;9097;47.028;15.444;2022-11-28T14:24:58;8.83;;;4.40;;
17943;SDS011;9097;47.028;15.444;2022-11-28T14:28:14;10.53;;;5.13;;
17943;SDS011;9097;47.028;15.444;2022-11-28T14:31:26;9.93;;;5.00;;
17943;SDS011;9097;47.028;15.444;2022-11-28T14:34:35;14.63;;;5.07;;
17943;SDS011;9097;47.028;15.444;2022-11-28T14:37:49;10.80;;;5.67;;
17943;SDS011;9097;47.028;15.444;2022-11-28T14:51:16;18.93;;;6.80;;
17943;SDS011;9097;47.028;15.444;2022-11-28T14:54:19;9.53;;;4.77;;
17943;SDS011;9097;47.028;15.444;2022-11-28T14:57:25;14.20;;;6.60;;
17943;SDS011;9097;47.028;15.444;2022-11-28T15:00:31;13.03;;;6.00;;
17943;SDS011;9097;47.028;15.444;2022-11-28T15:03:49;13.27;;;5.33;;
17943;SDS011;9097;47.028;15.444;2022-11-28T15:06:59;12.03;;;5.27;;
17943;SDS011;9097;47.028;15.444;2022-11-28T15:10:06;12.73;;;6.40;;
17943;SDS011;9097;47.028;15.444;2022-11-28T15:13:20;14.53;;;5.83;;
17943;SDS011;9097;47.028;15.444;2022-11-28T15:16:32;13.27;;;5.27;;
17943;SDS011;9097;47.028;15.444;2022-11-28T15:19:39;10.83;;;4.70;;
17943;SDS011;9097;47.028;15.444;2022-11-28T15:22:45;9.17;;;5.20;;
17943;SDS011;9097;47.028;15.444;2022-11-28T15:25:51;23.50;;;6.60;;
17943;SDS011;9097;47.028;15.444;2022-11-28T15:32:18;14.27;;;6.57;;
17943;SDS011;9097;47.028;15.444;2022-11-28T15:35:22;17.27;;;5.43;;
17943;SDS011;9097;47.028;15.444;2022-11-28T15:38:25;23.93;;;7.97;;
17943;SDS011;9097;47.028;15.444;2022-11-28T15:41:29;25.10;;;10.07;;
17943;SDS011;9097;47.028;15.444;2022-11-28T15:44:32;21.67;;;7.77;;
17943;SDS011;9097;47.028;15.444;2022-11-28T15:47:36;19.07;;;6.93;;
17943;SDS011;9097;47.028;15.444;2022-11-28T15:50:47;11.20;;;5.43;;
17943;SDS011;9097;47.028;15.444;2022-11-28T15:53:50;11.17;;;5.53;;
17943;SDS011;9097;47.028;15.444;2022-11-28T15:56:55;18.53;;;7.17;;
17943;SDS011;9097;47.028;15.444;2022-11-28T15:59:58;10.77;;;6.47;;
17943;SDS011;9097;47.028;15.444;2022-11-28T16:03:03;12.97;;;6.50;;
17943;SDS011;9097;47.028;15.444;2022-11-28T16:06:08;14.43;;;6.67;;
17943;SDS011;9097;47.028;15.444;2022-11-28T16:09:22;16.47;;;7.60;;
17943;SDS011;9097;47.028;15.444;2022-11-28T16:12:27;15.47;;;7.07;;
17943;SDS011;9097;47.028;15.444;2022-11-28T16:15:30;17.53;;;8.27;;
17943;SDS011;9097;47.028;15.444;2022-11-28T16:18:33;15.30;;;7.13;;
17943;SDS011;9097;47.028;15.444;2022-11-28T16:21:39;22.03;;;8.43;;
17943;SDS011;9097;47.028;15.444;2022-11-28T16:24:46;17.27;;;6.30;;
17943;SDS011;9097;47.028;15.444;2022-11-28T16:27:50;15.13;;;6.70;;
17943;SDS011;9097;47.028;15.444;2022-11-28T16:30:53;11.30;;;6.60;;
17943;SDS011;9097;47.028;15.444;2022-11-28T16:33:56;13.77;;;6.50;;
17943;SDS011;9097;47.028;15.444;2022-11-28T16:37:00;13.97;;;6.80;;
17943;SDS011;9097;47.028;15.444;2022-11-28T16:40:12;19.70;;;7.20;;
17943;SDS011;9097;47.028;15.444;2022-11-28T16:43:19;17.80;;;7.50;;
17943;SDS011;9097;47.028;15.444;2022-11-28T16:46:25;15.27;;;6.40;;
17943;SDS011;9097;47.028;15.444;2022-11-28T16:49:33;18.60;;;6.83;;
17943;SDS011;9097;47.028;15.444;2022-11-28T16:52:42;21.63;;;8.63;;
17943;SDS011;9097;47.028;15.444;2022-11-28T16:55:46;12.80;;;7.37;;
17943;SDS011;9097;47.028;15.444;2022-11-28T16:58:50;11.43;;;6.97;;
17943;SDS011;9097;47.028;15.444;2022-11-28T17:01:54;16.93;;;6.77;;
17943;SDS011;9097;47.028;15.444;2022-11-28T17:04:56;14.90;;;7.03;;
17943;SDS011;9097;47.028;15.444;2022-11-28T17:08:00;15.20;;;7.23;;
17943;SDS011;9097;47.028;15.444;2022-11-28T17:11:03;18.27;;;8.17;;
17943;SDS011;9097;47.028;15.444;2022-11-28T17:14:05;13.67;;;7.17;;
17943;SDS011;9097;47.028;15.444;2022-11-28T17:17:10;13.23;;;5.13;;
17943;SDS011;9097;47.028;15.444;2022-11-28T17:20:13;16.43;;;6.90;;
17943;SDS011;9097;47.028;15.444;2022-11-28T17:23:18;14.83;;;7.30;;
17943;SDS011;9097;47.028;15.444;2022-11-28T17:26:24;10.50;;;5.47;;
17943;SDS011;9097;47.028;15.444;2022-11-28T17:29:27;12.93;;;6.40;;
17943;SDS011;9097;47.028;15.444;2022-11-28T17:32:29;21.43;;;7.23;;
17943;SDS011;9097;47.028;15.444;2022-11-28T17:35:33;17.83;;;6.03;;
17943;SDS011;9097;47.028;15.444;2022-11-28T17:38:43;12.70;;;6.50;;
17943;SDS011;9097;47.028;15.444;2022-11-28T17:41:46;10.53;;;6.50;;
17943;SDS011;9097;47.028;15.444;2022-11-28T17:44:49;17.50;;;7.80;;
17943;SDS011;9097;47.028;15.444;2022-11-28T17:47:51;13.00;;;7.20;;
17943;SDS011;9097;47.028;15.444;2022-11-28T17:50:55;17.07;;;6.30;;
17943;SDS011;9097;47.028;15.444;2022-11-28T17:53:58;12.77;;;6.73;;
17943;SDS011;9097;47.028;15.444;2022-11-28T17:57:01;19.47;;;7.67;;
17943;SDS011;9097;47.028;15.444;2022-11-28T18:00:03;17.73;;;6.93;;
17943;SDS011;9097;47.028;15.444;2022-11-28T18:03:06;12.83;;;6.47;;
17943;SDS011;9097;47.028;15.444;2022-11-28T18:06:13;15.20;;;7.87;;
17943;SDS011;9097;47.028;15.444;2022-11-28T18:09:17;14.67;;;7.20;;
17943;SDS011;9097;47.028;15.444;2022-11-28T18:12:20;29.07;;;8.53;;
17943;SDS011;9097;47.028;15.444;2022-11-28T18:15:23;21.27;;;10.57;;
17943;SDS011;9097;47.028;15.444;2022-11-28T18:18:27;14.97;;;7.43;;
17943;SDS011;9097;47.028;15.444;2022-11-28T18:21:32;21.97;;;8.80;;
17943;SDS011;9097;47.028;15.444;2022-11-28T18:24:36;30.80;;;9.53;;
17943;SDS011;9097;47.028;15.444;2022-11-28T18:27:40;30.33;;;9.60;;
17943;SDS011;9097;47.028;15.444;2022-11-28T18:30:43;25.10;;;9.40;;
17943;SDS011;9097;47.028;15.444;2022-11-28T18:33:47;21.13;;;8.63;;
17943;SDS011;9097;47.028;15.444;2022-11-28T18:36:50;18.93;;;6.40;;
17943;SDS011;9097;47.028;15.444;2022-11-28T18:40:02;7.60;;;5.07;;
17943;SDS011;9097;47.028;15.444;2022-11-28T18:43:06;11.43;;;5.40;;
17943;SDS011;9097;47.028;15.444;2022-11-28T18:46:09;16.30;;;5.63;;
17943;SDS011;9097;47.028;15.444;2022-11-28T18:49:13;11.37;;;6.23;;
17943;SDS011;9097;47.028;15.444;2022-11-28T18:52:17;12.93;;;6.17;;
17943;SDS011;9097;47.028;15.444;2022-11-28T18:55:21;17.77;;;6.83;;
17943;SDS011;9097;47.028;15.444;2022-11-28T18:58:26;13.00;;;5.87;;
17943;SDS011;9097;47.028;15.444;2022-11-28T19:01:31;22.87;;;5.97;;
17943;SDS011;9097;47.028;15.444;2022-11-28T19:04:36;21.93;;;6.67;;
17943;SDS011;9097;47.028;15.444;2022-11-28T19:07:39;17.10;;;6.00;;